KFXE/FXE METAR and TAF weather

Enter ICAO airport designator
Station Type Date Time Source
KFXE METAR 2020/01/20 10:03 UTC NOAA

KFXE 201003Z 30005KT 10SM OVC009 21/20 A3004 RMK AO2 CIG 006V010 T02110200


Station Type Date Time Source
KFXE Decoded METAR 2020/01/20 10:03 UTC NOAA

FORT LAUDERDALE EXECUTIVE, FL, United States (KFXE) 26-12N 080-11W 6M
Jan 20, 2020 - 05:03 AM EST / 2020.01.20 1003 UTC
Wind: from the WNW (300 degrees) at 6 MPH (5 KT):0
Visibility: 10 mile(s):0
Sky conditions: overcast
Temperature: 70.0 F (21.1 C)
Dew Point: 68.0 F (20.0 C)
Relative Humidity: 93%
Pressure (altimeter): 30.04 in. Hg (1017 hPa)
ob: KFXE 201003Z 30005KT 10SM OVC009 21/20 A3004 RMK AO2 CIG 006V010 T02110200
cycle: 10

Station Type Date Time Source
KFXE TAF 2020/01/20 09:00 UTC NOAA

TAF
AMD KFXE 200858Z 2009/2106 34008KT P6SM VCSH FEW015 SCT025 BKN035
TEMPO 2009/2013 5SM SHRA SCT015 BKN025
FM201400 34010KT P6SM SCT015 BKN045
FM210200 34006KT P6SM SCT025 SCT050

Example: see airport list